sensor_id;sensor_type;location;lat;lon;timestamp;temperature;humidity
63047;DHT22;62025;39.238;9.126;2024-01-30T00:00:01;12.20;67.60
63047;DHT22;62025;39.238;9.126;2024-01-30T00:02:31;12.20;67.60
63047;DHT22;62025;39.238;9.126;2024-01-30T00:04:57;12.20;67.40
63047;DHT22;62025;39.238;9.126;2024-01-30T00:07:23;12.20;67.20
63047;DHT22;62025;39.238;9.126;2024-01-30T00:09:50;12.30;67.00
63047;DHT22;62025;39.238;9.126;2024-01-30T00:12:16;12.30;67.10
63047;DHT22;62025;39.238;9.126;2024-01-30T00:14:42;12.20;67.30
63047;DHT22;62025;39.238;9.126;2024-01-30T00:17:09;12.20;67.30
63047;DHT22;62025;39.238;9.126;2024-01-30T00:19:35;12.20;67.10
63047;DHT22;62025;39.238;9.126;2024-01-30T00:22:01;12.30;67.00
63047;DHT22;62025;39.238;9.126;2024-01-30T00:24:28;12.30;66.90
63047;DHT22;62025;39.238;9.126;2024-01-30T00:26:54;12.30;67.00
63047;DHT22;62025;39.238;9.126;2024-01-30T00:29:20;12.10;67.10
63047;DHT22;62025;39.238;9.126;2024-01-30T00:31:47;12.10;67.10
63047;DHT22;62025;39.238;9.126;2024-01-30T00:34:14;12.10;67.30
63047;DHT22;62025;39.238;9.126;2024-01-30T00:36:40;12.20;67.10
63047;DHT22;62025;39.238;9.126;2024-01-30T00:39:06;12.20;66.90
63047;DHT22;62025;39.238;9.126;2024-01-30T00:41:34;12.10;67.10
63047;DHT22;62025;39.238;9.126;2024-01-30T00:44:00;12.10;67.00
63047;DHT22;62025;39.238;9.126;2024-01-30T00:46:27;12.10;66.90
63047;DHT22;62025;39.238;9.126;2024-01-30T00:48:53;12.10;66.90
63047;DHT22;62025;39.238;9.126;2024-01-30T00:51:19;12.10;67.00
63047;DHT22;62025;39.238;9.126;2024-01-30T00:53:45;12.10;67.00
63047;DHT22;62025;39.238;9.126;2024-01-30T00:56:11;12.10;67.10
63047;DHT22;62025;39.238;9.126;2024-01-30T00:58:37;12.00;67.20
63047;DHT22;62025;39.238;9.126;2024-01-30T01:01:04;12.00;67.00
63047;DHT22;62025;39.238;9.126;2024-01-30T01:03:30;12.00;66.90
63047;DHT22;62025;39.238;9.126;2024-01-30T01:05:56;12.00;66.90
63047;DHT22;62025;39.238;9.126;2024-01-30T01:08:22;12.00;66.90
63047;DHT22;62025;39.238;9.126;2024-01-30T01:10:48;11.90;66.70
63047;DHT22;62025;39.238;9.126;2024-01-30T01:13:15;11.90;66.90
63047;DHT22;62025;39.238;9.126;2024-01-30T01:15:41;11.90;66.80
63047;DHT22;62025;39.238;9.126;2024-01-30T01:18:07;12.00;66.60
63047;DHT22;62025;39.238;9.126;2024-01-30T01:20:33;12.00;66.40
63047;DHT22;62025;39.238;9.126;2024-01-30T01:22:59;11.90;66.40
63047;DHT22;62025;39.238;9.126;2024-01-30T01:25:25;11.90;66.50
63047;DHT22;62025;39.238;9.126;2024-01-30T01:27:51;11.90;66.60
63047;DHT22;62025;39.238;9.126;2024-01-30T01:30:18;11.90;66.60
63047;DHT22;62025;39.238;9.126;2024-01-30T01:32:50;11.80;66.80
63047;DHT22;62025;39.238;9.126;2024-01-30T01:35:24;11.80;66.70
63047;DHT22;62025;39.238;9.126;2024-01-30T01:37:51;11.80;66.80
63047;DHT22;62025;39.238;9.126;2024-01-30T01:40:24;11.80;66.70
63047;DHT22;62025;39.238;9.126;2024-01-30T01:42:51;11.80;66.70
63047;DHT22;62025;39.238;9.126;2024-01-30T01:45:18;11.80;66.70
63047;DHT22;62025;39.238;9.126;2024-01-30T01:47:47;11.90;66.70
63047;DHT22;62025;39.238;9.126;2024-01-30T01:50:16;11.80;66.90
63047;DHT22;62025;39.238;9.126;2024-01-30T01:52:47;11.80;66.90
63047;DHT22;62025;39.238;9.126;2024-01-30T01:55:16;11.80;66.90
63047;DHT22;62025;39.238;9.126;2024-01-30T01:57:44;11.80;66.90
63047;DHT22;62025;39.238;9.126;2024-01-30T02:00:11;11.70;67.20
63047;DHT22;62025;39.238;9.126;2024-01-30T02:02:39;11.70;67.00
63047;DHT22;62025;39.238;9.126;2024-01-30T02:05:05;11.60;67.40
63047;DHT22;62025;39.238;9.126;2024-01-30T02:07:32;11.70;67.20
63047;DHT22;62025;39.238;9.126;2024-01-30T02:09:58;11.60;67.20
63047;DHT22;62025;39.238;9.126;2024-01-30T02:12:24;11.70;67.00
63047;DHT22;62025;39.238;9.126;2024-01-30T02:14:50;11.80;66.70
63047;DHT22;62025;39.238;9.126;2024-01-30T02:17:17;11.80;66.60
63047;DHT22;62025;39.238;9.126;2024-01-30T02:19:43;11.80;66.50
63047;DHT22;62025;39.238;9.126;2024-01-30T02:22:09;11.70;66.70
63047;DHT22;62025;39.238;9.126;2024-01-30T02:24:36;11.70;66.90
63047;DHT22;62025;39.238;9.126;2024-01-30T02:27:02;11.70;66.70
63047;DHT22;62025;39.238;9.126;2024-01-30T02:29:28;11.70;66.80
63047;DHT22;62025;39.238;9.126;2024-01-30T02:31:54;11.70;66.90
63047;DHT22;62025;39.238;9.126;2024-01-30T02:34:20;11.60;66.90
63047;DHT22;62025;39.238;9.126;2024-01-30T02:36:47;11.50;67.20
63047;DHT22;62025;39.238;9.126;2024-01-30T02:39:13;11.60;67.20
63047;DHT22;62025;39.238;9.126;2024-01-30T02:41:39;11.60;67.10
63047;DHT22;62025;39.238;9.126;2024-01-30T02:44:05;11.60;66.90
63047;DHT22;62025;39.238;9.126;2024-01-30T02:46:31;11.60;66.80
63047;DHT22;62025;39.238;9.126;2024-01-30T02:48:57;11.60;67.00
63047;DHT22;62025;39.238;9.126;2024-01-30T02:51:23;11.60;67.10
63047;DHT22;62025;39.238;9.126;2024-01-30T02:53:49;11.60;67.00
63047;DHT22;62025;39.238;9.126;2024-01-30T02:56:16;11.50;67.10
63047;DHT22;62025;39.238;9.126;2024-01-30T02:58:42;11.50;67.10
63047;DHT22;62025;39.238;9.126;2024-01-30T03:01:08;11.50;67.20
63047;DHT22;62025;39.238;9.126;2024-01-30T03:03:34;11.50;67.20
63047;DHT22;62025;39.238;9.126;2024-01-30T03:06:01;11.50;67.20
63047;DHT22;62025;39.238;9.126;2024-01-30T03:08:28;11.60;67.20
63047;DHT22;62025;39.238;9.126;2024-01-30T03:10:54;11.50;67.20
63047;DHT22;62025;39.238;9.126;2024-01-30T03:13:21;11.50;67.40
63047;DHT22;62025;39.238;9.126;2024-01-30T03:15:49;11.50;67.40
63047;DHT22;62025;39.238;9.126;2024-01-30T03:18:15;11.60;67.20
63047;DHT22;62025;39.238;9.126;2024-01-30T03:20:41;11.60;66.90
63047;DHT22;62025;39.238;9.126;2024-01-30T03:23:07;11.50;66.90
63047;DHT22;62025;39.238;9.126;2024-01-30T03:25:33;11.50;67.00
63047;DHT22;62025;39.238;9.126;2024-01-30T03:27:59;11.50;67.00
63047;DHT22;62025;39.238;9.126;2024-01-30T03:30:25;11.50;67.10
63047;DHT22;62025;39.238;9.126;2024-01-30T03:32:52;11.50;67.00
63047;DHT22;62025;39.238;9.126;2024-01-30T03:35:19;11.50;67.00
63047;DHT22;62025;39.238;9.126;2024-01-30T03:37:45;11.40;67.10
63047;DHT22;62025;39.238;9.126;2024-01-30T03:40:11;11.40;67.20
63047;DHT22;62025;39.238;9.126;2024-01-30T03:42:38;11.40;67.50
63047;DHT22;62025;39.238;9.126;2024-01-30T03:45:04;11.30;67.50
63047;DHT22;62025;39.238;9.126;2024-01-30T03:47:31;11.40;67.40
63047;DHT22;62025;39.238;9.126;2024-01-30T03:49:57;11.40;67.20
63047;DHT22;62025;39.238;9.126;2024-01-30T03:52:23;11.30;67.10
63047;DHT22;62025;39.238;9.126;2024-01-30T03:54:50;11.40;67.20
63047;DHT22;62025;39.238;9.126;2024-01-30T03:57:16;11.40;67.20
63047;DHT22;62025;39.238;9.126;2024-01-30T03:59:45;11.30;67.40
63047;DHT22;62025;39.238;9.126;2024-01-30T04:02:11;11.30;67.50
63047;DHT22;62025;39.238;9.126;2024-01-30T04:04:37;11.30;67.50
63047;DHT22;62025;39.238;9.126;2024-01-30T04:07:04;11.30;67.60
63047;DHT22;62025;39.238;9.126;2024-01-30T04:09:30;11.20;67.60
63047;DHT22;62025;39.238;9.126;2024-01-30T04:11:57;11.20;67.80
63047;DHT22;62025;39.238;9.126;2024-01-30T04:14:23;11.20;67.70
63047;DHT22;62025;39.238;9.126;2024-01-30T04:16:49;11.20;67.60
63047;DHT22;62025;39.238;9.126;2024-01-30T04:19:15;11.20;67.50
63047;DHT22;62025;39.238;9.126;2024-01-30T04:21:41;11.10;67.50
63047;DHT22;62025;39.238;9.126;2024-01-30T04:24:07;11.10;67.40
63047;DHT22;62025;39.238;9.126;2024-01-30T04:26:34;11.10;67.30
63047;DHT22;62025;39.238;9.126;2024-01-30T04:29:00;11.10;67.50
63047;DHT22;62025;39.238;9.126;2024-01-30T04:31:26;11.10;67.50
63047;DHT22;62025;39.238;9.126;2024-01-30T04:33:52;11.00;67.50
63047;DHT22;62025;39.238;9.126;2024-01-30T04:36:18;10.90;67.80
63047;DHT22;62025;39.238;9.126;2024-01-30T04:38:44;11.00;67.60
63047;DHT22;62025;39.238;9.126;2024-01-30T04:41:10;11.00;67.50
63047;DHT22;62025;39.238;9.126;2024-01-30T04:43:36;11.00;67.40
63047;DHT22;62025;39.238;9.126;2024-01-30T04:46:03;11.00;67.40
63047;DHT22;62025;39.238;9.126;2024-01-30T04:48:29;11.00;67.40
63047;DHT22;62025;39.238;9.126;2024-01-30T04:50:56;11.00;67.40
63047;DHT22;62025;39.238;9.126;2024-01-30T04:53:22;11.00;67.20
63047;DHT22;62025;39.238;9.126;2024-01-30T04:55:48;10.90;67.40
63047;DHT22;62025;39.238;9.126;2024-01-30T04:58:14;10.80;67.40
63047;DHT22;62025;39.238;9.126;2024-01-30T05:00:40;10.80;67.50
63047;DHT22;62025;39.238;9.126;2024-01-30T05:03:06;10.80;67.30
63047;DHT22;62025;39.238;9.126;2024-01-30T05:05:33;10.80;67.00
63047;DHT22;62025;39.238;9.126;2024-01-30T05:07:59;10.90;67.00
63047;DHT22;62025;39.238;9.126;2024-01-30T05:10:25;10.80;67.10
63047;DHT22;62025;39.238;9.126;2024-01-30T05:12:52;10.80;66.90
63047;DHT22;62025;39.238;9.126;2024-01-30T05:15:18;10.80;66.90
63047;DHT22;62025;39.238;9.126;2024-01-30T05:17:44;10.80;67.20
63047;DHT22;62025;39.238;9.126;2024-01-30T05:20:11;10.80;67.10
63047;DHT22;62025;39.238;9.126;2024-01-30T05:22:37;10.80;67.20
63047;DHT22;62025;39.238;9.126;2024-01-30T05:25:05;10.80;67.20
63047;DHT22;62025;39.238;9.126;2024-01-30T05:27:31;10.80;67.10
63047;DHT22;62025;39.238;9.126;2024-01-30T05:29:57;10.80;67.20
63047;DHT22;62025;39.238;9.126;2024-01-30T05:32:23;10.80;67.30
63047;DHT22;62025;39.238;9.126;2024-01-30T05:34:51;10.70;67.40
63047;DHT22;62025;39.238;9.126;2024-01-30T05:37:17;10.80;67.30
63047;DHT22;62025;39.238;9.126;2024-01-30T05:39:43;10.70;67.50
63047;DHT22;62025;39.238;9.126;2024-01-30T05:42:09;10.70;67.50
63047;DHT22;62025;39.238;9.126;2024-01-30T05:44:35;10.70;67.60
63047;DHT22;62025;39.238;9.126;2024-01-30T05:47:02;10.70;67.60
63047;DHT22;62025;39.238;9.126;2024-01-30T05:49:28;10.70;67.60
63047;DHT22;62025;39.238;9.126;2024-01-30T05:51:54;10.70;67.40
63047;DHT22;62025;39.238;9.126;2024-01-30T05:54:20;10.80;67.40
63047;DHT22;62025;39.238;9.126;2024-01-30T05:56:46;10.70;67.40
63047;DHT22;62025;39.238;9.126;2024-01-30T05:59:12;10.70;67.50
63047;DHT22;62025;39.238;9.126;2024-01-30T06:01:45;10.60;67.60
63047;DHT22;62025;39.238;9.126;2024-01-30T06:04:12;10.70;67.50
63047;DHT22;62025;39.238;9.126;2024-01-30T06:06:39;10.60;67.50
63047;DHT22;62025;39.238;9.126;2024-01-30T06:09:05;10.60;67.70
63047;DHT22;62025;39.238;9.126;2024-01-30T06:11:33;10.60;67.70
63047;DHT22;62025;39.238;9.126;2024-01-30T06:14:00;10.70;67.50
63047;DHT22;62025;39.238;9.126;2024-01-30T06:16:26;10.60;67.50
63047;DHT22;62025;39.238;9.126;2024-01-30T06:18:57;10.60;67.60
63047;DHT22;62025;39.238;9.126;2024-01-30T06:21:25;10.50;67.50
63047;DHT22;62025;39.238;9.126;2024-01-30T06:23:51;10.50;67.50
63047;DHT22;62025;39.238;9.126;2024-01-30T06:26:17;10.60;67.30
63047;DHT22;62025;39.238;9.126;2024-01-30T06:28:43;10.60;67.30
63047;DHT22;62025;39.238;9.126;2024-01-30T06:31:10;10.40;67.30
63047;DHT22;62025;39.238;9.126;2024-01-30T06:33:36;10.40;67.30
63047;DHT22;62025;39.238;9.126;2024-01-30T06:36:02;10.40;67.30
63047;DHT22;62025;39.238;9.126;2024-01-30T06:38:28;10.50;67.20
63047;DHT22;62025;39.238;9.126;2024-01-30T06:40:54;10.50;67.20
63047;DHT22;62025;39.238;9.126;2024-01-30T06:43:21;10.50;67.30
63047;DHT22;62025;39.238;9.126;2024-01-30T06:45:48;10.50;67.30
63047;DHT22;62025;39.238;9.126;2024-01-30T06:48:14;10.60;67.00
63047;DHT22;62025;39.238;9.126;2024-01-30T06:50:40;10.70;66.90
63047;DHT22;62025;39.238;9.126;2024-01-30T06:53:06;10.80;66.80
63047;DHT22;62025;39.238;9.126;2024-01-30T06:55:32;10.90;66.60
63047;DHT22;62025;39.238;9.126;2024-01-30T06:57:58;10.90;66.30
63047;DHT22;62025;39.238;9.126;2024-01-30T07:00:24;10.90;66.10
63047;DHT22;62025;39.238;9.126;2024-01-30T07:02:50;11.20;65.70
63047;DHT22;62025;39.238;9.126;2024-01-30T07:05:17;11.30;65.30
63047;DHT22;62025;39.238;9.126;2024-01-30T07:07:43;11.40;64.80
63047;DHT22;62025;39.238;9.126;2024-01-30T07:10:09;11.50;64.50
63047;DHT22;62025;39.238;9.126;2024-01-30T07:12:35;11.70;64.00
63047;DHT22;62025;39.238;9.126;2024-01-30T07:15:01;11.80;63.50
63047;DHT22;62025;39.238;9.126;2024-01-30T07:17:29;11.90;63.20
63047;DHT22;62025;39.238;9.126;2024-01-30T07:19:55;12.10;62.80
63047;DHT22;62025;39.238;9.126;2024-01-30T07:22:21;12.30;62.30
63047;DHT22;62025;39.238;9.126;2024-01-30T07:24:47;12.30;61.90
63047;DHT22;62025;39.238;9.126;2024-01-30T07:27:15;12.50;61.50
63047;DHT22;62025;39.238;9.126;2024-01-30T07:29:43;12.70;61.20
63047;DHT22;62025;39.238;9.126;2024-01-30T07:32:09;12.80;60.70
63047;DHT22;62025;39.238;9.126;2024-01-30T07:34:35;13.00;60.50
63047;DHT22;62025;39.238;9.126;2024-01-30T07:37:02;13.30;59.90
63047;DHT22;62025;39.238;9.126;2024-01-30T07:39:28;13.30;59.90
63047;DHT22;62025;39.238;9.126;2024-01-30T07:41:54;13.60;59.20
63047;DHT22;62025;39.238;9.126;2024-01-30T07:44:21;13.80;59.00
63047;DHT22;62025;39.238;9.126;2024-01-30T07:46:48;14.10;58.30
63047;DHT22;62025;39.238;9.126;2024-01-30T07:49:14;14.20;57.90
63047;DHT22;62025;39.238;9.126;2024-01-30T07:51:40;14.20;57.60
63047;DHT22;62025;39.238;9.126;2024-01-30T07:54:06;13.70;58.40
63047;DHT22;62025;39.238;9.126;2024-01-30T07:56:32;13.50;59.30
63047;DHT22;62025;39.238;9.126;2024-01-30T07:58:58;14.00;58.40
63047;DHT22;62025;39.238;9.126;2024-01-30T08:01:24;14.40;57.50
63047;DHT22;62025;39.238;9.126;2024-01-30T08:03:50;14.80;56.70
63047;DHT22;62025;39.238;9.126;2024-01-30T08:06:17;15.10;55.90
63047;DHT22;62025;39.238;9.126;2024-01-30T08:08:43;15.30;55.60
63047;DHT22;62025;39.238;9.126;2024-01-30T08:11:09;15.40;54.80
63047;DHT22;62025;39.238;9.126;2024-01-30T08:13:35;15.60;54.20
63047;DHT22;62025;39.238;9.126;2024-01-30T08:16:03;15.80;53.90
63047;DHT22;62025;39.238;9.126;2024-01-30T08:18:29;16.10;53.30
63047;DHT22;62025;39.238;9.126;2024-01-30T08:20:56;16.30;52.70
63047;DHT22;62025;39.238;9.126;2024-01-30T08:23:22;16.50;52.30
63047;DHT22;62025;39.238;9.126;2024-01-30T08:25:48;16.60;51.90
63047;DHT22;62025;39.238;9.126;2024-01-30T08:28:14;16.80;51.60
63047;DHT22;62025;39.238;9.126;2024-01-30T08:30:40;17.00;51.30
63047;DHT22;62025;39.238;9.126;2024-01-30T08:33:06;17.20;50.70
63047;DHT22;62025;39.238;9.126;2024-01-30T08:35:32;17.30;50.60
63047;DHT22;62025;39.238;9.126;2024-01-30T08:37:59;17.60;50.10
63047;DHT22;62025;39.238;9.126;2024-01-30T08:40:25;17.70;49.20
63047;DHT22;62025;39.238;9.126;2024-01-30T08:42:52;17.90;49.10
63047;DHT22;62025;39.238;9.126;2024-01-30T08:45:18;18.10;48.50
63047;DHT22;62025;39.238;9.126;2024-01-30T08:47:44;18.30;48.00
63047;DHT22;62025;39.238;9.126;2024-01-30T08:50:10;18.40;48.00
63047;DHT22;62025;39.238;9.126;2024-01-30T08:52:37;18.50;47.60
63047;DHT22;62025;39.238;9.126;2024-01-30T08:55:03;18.40;47.70
63047;DHT22;62025;39.238;9.126;2024-01-30T08:57:30;18.40;47.90
63047;DHT22;62025;39.238;9.126;2024-01-30T08:59:56;18.50;47.80
63047;DHT22;62025;39.238;9.126;2024-01-30T09:02:22;18.30;47.40
63047;DHT22;62025;39.238;9.126;2024-01-30T09:04:48;18.30;48.10
63047;DHT22;62025;39.238;9.126;2024-01-30T09:07:15;18.60;47.50
63047;DHT22;62025;39.238;9.126;2024-01-30T09:09:41;18.50;47.70
63047;DHT22;62025;39.238;9.126;2024-01-30T09:12:07;18.60;47.50
63047;DHT22;62025;39.238;9.126;2024-01-30T09:14:36;19.00;46.10
63047;DHT22;62025;39.238;9.126;2024-01-30T09:17:02;18.80;46.20
63047;DHT22;62025;39.238;9.126;2024-01-30T09:19:29;18.90;45.50
63047;DHT22;62025;39.238;9.126;2024-01-30T09:21:55;19.00;45.20
63047;DHT22;62025;39.238;9.126;2024-01-30T09:24:22;19.10;45.60
63047;DHT22;62025;39.238;9.126;2024-01-30T09:26:48;19.00;45.30
63047;DHT22;62025;39.238;9.126;2024-01-30T09:29:14;19.40;44.50
63047;DHT22;62025;39.238;9.126;2024-01-30T09:31:43;19.20;44.70
63047;DHT22;62025;39.238;9.126;2024-01-30T09:34:10;19.30;44.60
63047;DHT22;62025;39.238;9.126;2024-01-30T09:36:37;19.30;44.70
63047;DHT22;62025;39.238;9.126;2024-01-30T09:39:03;19.20;45.10
63047;DHT22;62025;39.238;9.126;2024-01-30T09:41:32;19.20;45.40
63047;DHT22;62025;39.238;9.126;2024-01-30T09:44:00;19.40;44.80
63047;DHT22;62025;39.238;9.126;2024-01-30T09:46:28;19.50;44.80
63047;DHT22;62025;39.238;9.126;2024-01-30T09:48:57;19.40;44.50
63047;DHT22;62025;39.238;9.126;2024-01-30T09:51:23;19.40;45.30
63047;DHT22;62025;39.238;9.126;2024-01-30T09:53:50;19.40;44.90
63047;DHT22;62025;39.238;9.126;2024-01-30T09:56:17;19.40;45.60
63047;DHT22;62025;39.238;9.126;2024-01-30T09:58:44;19.30;45.20
63047;DHT22;62025;39.238;9.126;2024-01-30T10:01:11;19.00;46.00
63047;DHT22;62025;39.238;9.126;2024-01-30T10:03:37;19.10;46.20
63047;DHT22;62025;39.238;9.126;2024-01-30T10:06:03;19.40;45.70
63047;DHT22;62025;39.238;9.126;2024-01-30T10:08:30;18.80;46.50
63047;DHT22;62025;39.238;9.126;2024-01-30T10:10:56;18.90;46.40
63047;DHT22;62025;39.238;9.126;2024-01-30T10:13:23;19.40;45.50
63047;DHT22;62025;39.238;9.126;2024-01-30T10:15:49;19.40;45.90
63047;DHT22;62025;39.238;9.126;2024-01-30T10:18:16;19.60;45.50
63047;DHT22;62025;39.238;9.126;2024-01-30T10:20:42;19.90;45.40
63047;DHT22;62025;39.238;9.126;2024-01-30T10:23:09;18.30;47.50
63047;DHT22;62025;39.238;9.126;2024-01-30T10:25:35;18.70;47.50
63047;DHT22;62025;39.238;9.126;2024-01-30T10:28:01;18.80;47.60
63047;DHT22;62025;39.238;9.126;2024-01-30T10:30:27;19.30;46.00
63047;DHT22;62025;39.238;9.126;2024-01-30T10:32:54;18.90;46.60
63047;DHT22;62025;39.238;9.126;2024-01-30T10:35:20;18.80;47.20
63047;DHT22;62025;39.238;9.126;2024-01-30T10:37:49;18.90;47.30
63047;DHT22;62025;39.238;9.126;2024-01-30T10:40:16;18.60;47.90
63047;DHT22;62025;39.238;9.126;2024-01-30T10:42:46;18.70;47.90
63047;DHT22;62025;39.238;9.126;2024-01-30T10:45:13;18.40;48.30
63047;DHT22;62025;39.238;9.126;2024-01-30T10:47:48;18.10;49.00
63047;DHT22;62025;39.238;9.126;2024-01-30T10:50:15;17.80;49.80
63047;DHT22;62025;39.238;9.126;2024-01-30T10:52:42;18.10;49.90
63047;DHT22;62025;39.238;9.126;2024-01-30T10:55:10;18.60;49.20
63047;DHT22;62025;39.238;9.126;2024-01-30T10:57:37;18.20;50.00
63047;DHT22;62025;39.238;9.126;2024-01-30T11:00:11;18.60;49.60
63047;DHT22;62025;39.238;9.126;2024-01-30T11:02:45;18.70;49.50
63047;DHT22;62025;39.238;9.126;2024-01-30T11:05:13;18.40;50.10
63047;DHT22;62025;39.238;9.126;2024-01-30T11:07:41;17.90;50.30
63047;DHT22;62025;39.238;9.126;2024-01-30T11:10:07;17.80;51.70
63047;DHT22;62025;39.238;9.126;2024-01-30T11:12:39;18.00;50.70
63047;DHT22;62025;39.238;9.126;2024-01-30T11:15:14;17.80;50.80
63047;DHT22;62025;39.238;9.126;2024-01-30T11:17:53;17.50;51.10
63047;DHT22;62025;39.238;9.126;2024-01-30T11:22:49;16.90;52.90
63047;DHT22;62025;39.238;9.126;2024-01-30T11:25:19;16.80;53.40
63047;DHT22;62025;39.238;9.126;2024-01-30T11:27:47;16.60;53.80
63047;DHT22;62025;39.238;9.126;2024-01-30T11:30:28;16.50;54.00
63047;DHT22;62025;39.238;9.126;2024-01-30T11:35:51;16.10;55.60
63047;DHT22;62025;39.238;9.126;2024-01-30T11:38:17;16.00;55.40
63047;DHT22;62025;39.238;9.126;2024-01-30T11:40:44;15.80;55.90
63047;DHT22;62025;39.238;9.126;2024-01-30T11:43:10;16.10;55.40
63047;DHT22;62025;39.238;9.126;2024-01-30T11:45:37;16.20;55.20
63047;DHT22;62025;39.238;9.126;2024-01-30T11:48:05;16.30;54.90
63047;DHT22;62025;39.238;9.126;2024-01-30T11:50:33;16.20;55.20
63047;DHT22;62025;39.238;9.126;2024-01-30T11:53:01;16.10;55.70
63047;DHT22;62025;39.238;9.126;2024-01-30T11:55:29;15.70;56.20
63047;DHT22;62025;39.238;9.126;2024-01-30T11:57:57;15.90;55.60
63047;DHT22;62025;39.238;9.126;2024-01-30T12:00:24;15.90;55.80
63047;DHT22;62025;39.238;9.126;2024-01-30T12:02:55;16.00;55.50
63047;DHT22;62025;39.238;9.126;2024-01-30T12:05:25;16.00;56.10
63047;DHT22;62025;39.238;9.126;2024-01-30T12:07:51;15.80;56.40
63047;DHT22;62025;39.238;9.126;2024-01-30T12:10:18;15.80;56.50
63047;DHT22;62025;39.238;9.126;2024-01-30T12:12:49;15.80;56.60
63047;DHT22;62025;39.238;9.126;2024-01-30T12:15:16;15.70;56.70
63047;DHT22;62025;39.238;9.126;2024-01-30T12:17:43;15.70;56.50
63047;DHT22;62025;39.238;9.126;2024-01-30T12:22:47;15.70;56.90
63047;DHT22;62025;39.238;9.126;2024-01-30T12:25:16;15.70;57.00
63047;DHT22;62025;39.238;9.126;2024-01-30T12:27:47;15.60;57.50
63047;DHT22;62025;39.238;9.126;2024-01-30T12:30:19;15.40;57.80
63047;DHT22;62025;39.238;9.126;2024-01-30T12:32:47;15.40;58.20
63047;DHT22;62025;39.238;9.126;2024-01-30T12:35:16;15.50;58.30
63047;DHT22;62025;39.238;9.126;2024-01-30T12:37:44;15.50;58.30
63047;DHT22;62025;39.238;9.126;2024-01-30T12:40:12;15.50;58.20
63047;DHT22;62025;39.238;9.126;2024-01-30T12:42:41;15.30;58.50
63047;DHT22;62025;39.238;9.126;2024-01-30T12:45:13;15.40;58.10
63047;DHT22;62025;39.238;9.126;2024-01-30T12:47:41;15.40;58.40
63047;DHT22;62025;39.238;9.126;2024-01-30T12:50:08;15.50;58.10
63047;DHT22;62025;39.238;9.126;2024-01-30T12:52:35;15.40;57.90
63047;DHT22;62025;39.238;9.126;2024-01-30T12:55:01;15.00;58.30
63047;DHT22;62025;39.238;9.126;2024-01-30T12:57:29;15.00;59.00
63047;DHT22;62025;39.238;9.126;2024-01-30T12:59:56;15.20;57.90
63047;DHT22;62025;39.238;9.126;2024-01-30T13:02:22;14.90;58.90
63047;DHT22;62025;39.238;9.126;2024-01-30T13:04:49;15.20;58.20
63047;DHT22;62025;39.238;9.126;2024-01-30T13:07:15;15.10;58.30
63047;DHT22;62025;39.238;9.126;2024-01-30T13:09:41;15.30;58.10
63047;DHT22;62025;39.238;9.126;2024-01-30T13:12:10;15.30;57.90
63047;DHT22;62025;39.238;9.126;2024-01-30T13:14:37;15.30;57.80
63047;DHT22;62025;39.238;9.126;2024-01-30T13:17:03;15.20;58.10
63047;DHT22;62025;39.238;9.126;2024-01-30T13:19:30;15.30;58.10
63047;DHT22;62025;39.238;9.126;2024-01-30T13:21:56;15.20;58.20
63047;DHT22;62025;39.238;9.126;2024-01-30T13:24:22;15.30;58.40
63047;DHT22;62025;39.238;9.126;2024-01-30T13:26:48;15.40;58.10
63047;DHT22;62025;39.238;9.126;2024-01-30T13:29:15;15.20;58.10
63047;DHT22;62025;39.238;9.126;2024-01-30T13:31:41;15.10;58.20
63047;DHT22;62025;39.238;9.126;2024-01-30T13:34:07;15.20;58.10
63047;DHT22;62025;39.238;9.126;2024-01-30T13:36:33;15.10;58.30
63047;DHT22;62025;39.238;9.126;2024-01-30T13:39:00;14.80;58.60
63047;DHT22;62025;39.238;9.126;2024-01-30T13:41:26;15.00;58.60
63047;DHT22;62025;39.238;9.126;2024-01-30T13:43:52;15.10;58.00
63047;DHT22;62025;39.238;9.126;2024-01-30T13:46:19;15.10;58.90
63047;DHT22;62025;39.238;9.126;2024-01-30T13:48:46;15.20;59.20
63047;DHT22;62025;39.238;9.126;2024-01-30T13:51:12;15.30;59.10
63047;DHT22;62025;39.238;9.126;2024-01-30T13:53:38;15.20;59.00
63047;DHT22;62025;39.238;9.126;2024-01-30T13:56:05;15.20;59.20
63047;DHT22;62025;39.238;9.126;2024-01-30T13:58:32;15.20;58.90
63047;DHT22;62025;39.238;9.126;2024-01-30T14:00:59;14.90;59.60
63047;DHT22;62025;39.238;9.126;2024-01-30T14:03:25;14.90;59.60
63047;DHT22;62025;39.238;9.126;2024-01-30T14:05:51;14.90;59.60
63047;DHT22;62025;39.238;9.126;2024-01-30T14:08:17;15.00;59.50
63047;DHT22;62025;39.238;9.126;2024-01-30T14:10:43;15.00;59.10
63047;DHT22;62025;39.238;9.126;2024-01-30T14:13:10;15.20;58.90
63047;DHT22;62025;39.238;9.126;2024-01-30T14:15:37;15.10;58.70
63047;DHT22;62025;39.238;9.126;2024-01-30T14:18:04;15.00;58.70
63047;DHT22;62025;39.238;9.126;2024-01-30T14:20:31;15.10;59.10
63047;DHT22;62025;39.238;9.126;2024-01-30T14:22:57;15.10;59.90
63047;DHT22;62025;39.238;9.126;2024-01-30T14:25:27;14.80;60.00
63047;DHT22;62025;39.238;9.126;2024-01-30T14:27:56;14.70;60.00
63047;DHT22;62025;39.238;9.126;2024-01-30T14:30:22;14.80;60.30
63047;DHT22;62025;39.238;9.126;2024-01-30T14:32:48;14.80;60.20
63047;DHT22;62025;39.238;9.126;2024-01-30T14:35:15;14.80;60.00
63047;DHT22;62025;39.238;9.126;2024-01-30T14:37:41;14.80;60.80
63047;DHT22;62025;39.238;9.126;2024-01-30T14:40:08;14.80;60.80
63047;DHT22;62025;39.238;9.126;2024-01-30T14:42:34;14.60;61.20
63047;DHT22;62025;39.238;9.126;2024-01-30T14:45:02;14.80;61.00
63047;DHT22;62025;39.238;9.126;2024-01-30T14:47:28;14.90;60.50
63047;DHT22;62025;39.238;9.126;2024-01-30T14:49:54;15.00;60.50
63047;DHT22;62025;39.238;9.126;2024-01-30T14:52:20;14.80;60.30
63047;DHT22;62025;39.238;9.126;2024-01-30T14:54:47;14.90;60.20
63047;DHT22;62025;39.238;9.126;2024-01-30T14:57:12;15.00;60.30
63047;DHT22;62025;39.238;9.126;2024-01-30T14:59:40;14.90;60.60
63047;DHT22;62025;39.238;9.126;2024-01-30T15:02:06;14.90;60.50
63047;DHT22;62025;39.238;9.126;2024-01-30T15:04:33;14.80;60.70
63047;DHT22;62025;39.238;9.126;2024-01-30T15:06:59;14.90;60.60
63047;DHT22;62025;39.238;9.126;2024-01-30T15:09:25;14.80;60.20
63047;DHT22;62025;39.238;9.126;2024-01-30T15:11:52;14.70;60.60
63047;DHT22;62025;39.238;9.126;2024-01-30T15:14:18;14.70;60.70
63047;DHT22;62025;39.238;9.126;2024-01-30T15:16:44;14.80;60.80
63047;DHT22;62025;39.238;9.126;2024-01-30T15:19:10;14.70;61.10
63047;DHT22;62025;39.238;9.126;2024-01-30T15:21:36;14.40;61.90
63047;DHT22;62025;39.238;9.126;2024-01-30T15:24:03;14.40;61.90
63047;DHT22;62025;39.238;9.126;2024-01-30T15:26:29;14.50;61.60
63047;DHT22;62025;39.238;9.126;2024-01-30T15:28:55;14.60;61.50
63047;DHT22;62025;39.238;9.126;2024-01-30T15:31:21;14.50;61.80
63047;DHT22;62025;39.238;9.126;2024-01-30T15:33:47;14.60;61.80